createdAt,value
2022-11-29T00:01:40.997Z,30.60
2022-11-29T00:04:09.499Z,29.23
2022-11-29T00:06:37.776Z,34.20
2022-11-29T00:09:09.487Z,28.70
2022-11-29T00:11:57.333Z,31.48
2022-11-29T00:14:27.250Z,32.55
2022-11-29T00:16:57.245Z,29.13
2022-11-29T00:19:25.331Z,26.75
2022-11-29T00:21:53.323Z,29.50
2022-11-29T00:24:22.981Z,31.45
2022-11-29T00:26:52.074Z,25.08
2022-11-29T00:29:20.490Z,30.75
2022-11-29T00:31:48.623Z,30.00
2022-11-29T00:34:16.703Z,29.08
2022-11-29T00:36:45.198Z,29.80
2022-11-29T00:39:13.764Z,33.65
2022-11-29T00:41:43.573Z,30.67
2022-11-29T00:44:18.442Z,32.03
2022-11-29T00:46:48.293Z,31.85
2022-11-29T00:49:16.661Z,29.48
2022-11-29T00:51:44.809Z,31.63
2022-11-29T00:54:13.112Z,30.42
2022-11-29T00:56:41.104Z,34.58
2022-11-29T00:59:10.858Z,25.65
2022-11-29T01:01:38.872Z,26.75
2022-11-29T01:04:06.977Z,24.88
2022-11-29T01:06:35.082Z,24.80
2022-11-29T01:09:03.388Z,23.17
2022-11-29T01:11:32.134Z,23.30
2022-11-29T01:14:02.929Z,26.00
2022-11-29T01:16:33.194Z,26.55
2022-11-29T01:19:01.548Z,29.30
2022-11-29T01:21:29.575Z,23.83
2022-11-29T01:23:58.396Z,25.80
2022-11-29T01:26:27.934Z,27.48
2022-11-29T01:28:57.655Z,26.40
2022-11-29T01:31:28.623Z,22.67
2022-11-29T01:34:00.048Z,26.25
2022-11-29T01:36:28.525Z,27.42
2022-11-29T01:38:56.936Z,28.80
2022-11-29T01:41:27.117Z,31.27
2022-11-29T01:43:59.205Z,34.47
2022-11-29T01:46:29.041Z,30.23
2022-11-29T01:49:04.816Z,30.00
2022-11-29T01:51:35.640Z,32.45
2022-11-29T01:54:04.455Z,30.42
2022-11-29T01:56:35.788Z,31.88
2022-11-29T01:59:07.778Z,30.80
2022-11-29T02:01:37.416Z,30.50
2022-11-29T02:04:07.913Z,29.65
2022-11-29T02:06:37.263Z,27.98
2022-11-29T02:09:06.249Z,27.55
2022-11-29T02:11:49.856Z,24.98
2022-11-29T02:14:41.061Z,25.48
2022-11-29T02:17:15.573Z,26.77
2022-11-29T02:20:37.059Z,28.50
2022-11-29T02:23:24.661Z,25.02
2022-11-29T02:26:10.883Z,27.55
2022-11-29T02:29:13.051Z,25.48
2022-11-29T02:32:19.752Z,26.55
2022-11-29T02:35:07.779Z,29.52
2022-11-29T02:38:00.475Z,26.63
2022-11-29T02:40:56.795Z,24.70
2022-11-29T02:43:51.681Z,23.50
2022-11-29T02:46:43.003Z,25.42
2022-11-29T02:49:17.988Z,21.60
2022-11-29T02:51:57.081Z,23.60
2022-11-29T02:54:30.944Z,26.35
2022-11-29T02:57:04.070Z,25.60
2022-11-29T02:59:54.260Z,26.40
2022-11-29T03:02:30.090Z,26.83
2022-11-29T03:05:08.081Z,21.05
2022-11-29T03:07:45.591Z,27.98
2022-11-29T03:10:27.019Z,21.33
2022-11-29T03:12:56.849Z,25.48
2022-11-29T03:15:31.176Z,30.63
2022-11-29T03:18:14.462Z,24.40
2022-11-29T03:20:59.097Z,23.83
2022-11-29T03:23:35.466Z,24.77
2022-11-29T03:26:08.170Z,25.23
2022-11-29T03:28:41.039Z,26.10
2022-11-29T03:31:17.303Z,24.98
2022-11-29T03:33:53.556Z,22.63
2022-11-29T03:36:30.841Z,24.95
2022-11-29T03:39:05.734Z,22.90
2022-11-29T03:41:41.941Z,24.45
2022-11-29T03:44:17.076Z,23.63
2022-11-29T03:46:51.479Z,27.42
2022-11-29T03:49:26.629Z,23.42
2022-11-29T03:52:02.463Z,25.42
2022-11-29T03:54:44.068Z,25.15
2022-11-29T03:57:14.988Z,26.17
2022-11-29T03:59:56.338Z,26.10
2022-11-29T04:03:09.569Z,23.60
2022-11-29T04:06:06.944Z,26.25
2022-11-29T04:08:54.662Z,26.48
2022-11-29T04:12:01.697Z,24.75
2022-11-29T04:14:44.051Z,25.67
2022-11-29T04:17:44.037Z,29.23
2022-11-29T04:20:40.343Z,28.05
2022-11-29T04:23:33.780Z,27.50
2022-11-29T04:26:22.281Z,32.38
2022-11-29T04:29:09.764Z,30.23
2022-11-29T04:31:55.849Z,27.85
2022-11-29T04:34:57.620Z,30.50
2022-11-29T04:37:55.768Z,30.10
2022-11-29T04:40:37.543Z,39.90
2022-11-29T04:43:22.446Z,32.35
2022-11-29T04:46:15.111Z,33.10
2022-11-29T04:49:03.058Z,30.67
2022-11-29T04:51:49.345Z,36.10
2022-11-29T04:54:25.257Z,34.97
2022-11-29T04:57:00.121Z,32.35
2022-11-29T04:59:38.576Z,31.48
2022-11-29T05:02:20.814Z,34.22
2022-11-29T05:04:59.333Z,33.58
2022-11-29T05:07:37.491Z,29.73
2022-11-29T05:10:21.560Z,30.25
2022-11-29T05:12:56.886Z,28.80
2022-11-29T05:15:42.429Z,35.55
2022-11-29T05:18:19.873Z,27.70
2022-11-29T05:20:59.767Z,30.92
2022-11-29T05:23:40.986Z,31.60
2022-11-29T05:26:17.095Z,31.92
2022-11-29T05:28:57.563Z,37.20
2022-11-29T05:31:53.136Z,32.28
2022-11-29T05:34:52.031Z,38.10
2022-11-29T05:37:32.602Z,33.88
2022-11-29T05:40:23.650Z,33.13
2022-11-29T05:43:07.308Z,31.13
2022-11-29T05:45:42.072Z,32.17
2022-11-29T05:50:47.450Z,30.27
2022-11-29T05:53:23.023Z,34.10
2022-11-29T05:56:02.900Z,34.47
2022-11-29T05:58:40.269Z,35.20
2022-11-29T06:01:19.233Z,33.55
2022-11-29T06:03:56.744Z,34.00
2022-11-29T06:06:33.906Z,43.60
2022-11-29T06:09:14.159Z,39.78
2022-11-29T06:11:47.052Z,38.35
2022-11-29T06:14:30.098Z,37.78
2022-11-29T06:17:34.358Z,36.67
2022-11-29T06:20:28.537Z,36.17
2022-11-29T06:23:15.546Z,33.38
2022-11-29T06:26:03.722Z,31.17
2022-11-29T06:28:49.564Z,32.17
2022-11-29T06:31:22.118Z,34.47
2022-11-29T06:33:57.398Z,40.63
2022-11-29T06:36:30.905Z,45.75
2022-11-29T06:38:59.626Z,40.73
2022-11-29T06:41:29.901Z,41.92
2022-11-29T06:43:58.417Z,34.13
2022-11-29T06:46:36.871Z,36.22
2022-11-29T06:49:11.164Z,32.33
2022-11-29T06:51:49.330Z,32.72
2022-11-29T06:54:32.746Z,34.63
2022-11-29T06:57:11.515Z,34.17
2022-11-29T06:59:53.937Z,34.00
2022-11-29T07:02:35.384Z,35.15
2022-11-29T07:05:14.876Z,34.55
2022-11-29T07:07:44.339Z,34.47
2022-11-29T07:10:18.332Z,32.28
2022-11-29T07:12:49.757Z,32.53
2022-11-29T07:15:20.469Z,32.65
2022-11-29T07:18:03.866Z,33.13
2022-11-29T07:20:40.807Z,30.42
2022-11-29T07:23:19.516Z,33.50
2022-11-29T07:25:58.548Z,30.27
2022-11-29T07:28:39.728Z,35.20
2022-11-29T07:31:13.177Z,36.80
2022-11-29T07:33:51.365Z,29.80
2022-11-29T07:36:26.720Z,26.88
2022-11-29T07:39:14.093Z,31.15
2022-11-29T07:41:52.814Z,33.33
2022-11-29T07:44:32.617Z,30.52
2022-11-29T07:47:00.658Z,30.80
2022-11-29T07:49:29.269Z,29.10
2022-11-29T07:51:57.496Z,29.58
2022-11-29T07:54:25.772Z,28.77
2022-11-29T07:56:54.197Z,32.60
2022-11-29T07:59:24.031Z,29.05
2022-11-29T08:01:52.807Z,26.00
2022-11-29T08:04:20.811Z,25.65
2022-11-29T08:06:49.318Z,27.45
2022-11-29T08:09:18.106Z,30.52
2022-11-29T08:11:46.238Z,35.08
2022-11-29T08:14:14.231Z,27.05
2022-11-29T08:16:43.846Z,27.45
2022-11-29T08:19:11.848Z,22.95
2022-11-29T08:21:39.966Z,28.17
2022-11-29T08:24:08.348Z,25.10
2022-11-29T08:26:36.392Z,24.75
2022-11-29T08:29:04.731Z,26.85
2022-11-29T08:31:33.412Z,28.00
2022-11-29T08:34:06.199Z,24.90
2022-11-29T08:36:34.379Z,23.45
2022-11-29T08:39:08.882Z,22.95
2022-11-29T08:41:38.348Z,27.45
2022-11-29T08:44:06.952Z,26.73
2022-11-29T08:46:49.354Z,24.33
2022-11-29T08:49:19.059Z,28.95
2022-11-29T08:51:47.231Z,25.17
2022-11-29T08:54:14.382Z,27.42
2022-11-29T08:59:31.379Z,28.40
2022-11-29T09:01:59.388Z,23.48
2022-11-29T09:04:29.353Z,22.40
2022-11-29T09:06:57.408Z,24.45
2022-11-29T09:09:25.382Z,24.40
2022-11-29T09:11:53.595Z,23.08
2022-11-29T09:14:22.858Z,23.70
2022-11-29T09:16:51.065Z,23.35
2022-11-29T09:19:19.135Z,24.67
2022-11-29T09:21:48.653Z,25.05
2022-11-29T09:24:17.007Z,27.15
2022-11-29T09:26:48.349Z,26.55
2022-11-29T09:29:17.566Z,27.30
2022-11-29T09:31:46.130Z,27.15
2022-11-29T09:34:14.823Z,19.50
2022-11-29T09:36:44.084Z,20.73
2022-11-29T09:39:13.520Z,21.58
2022-11-29T09:41:56.130Z,21.73
2022-11-29T09:44:35.341Z,17.27
2022-11-29T09:47:23.793Z,19.55
2022-11-29T09:50:17.732Z,17.38
2022-11-29T09:52:54.464Z,20.45
2022-11-29T09:55:50.548Z,18.75
2022-11-29T09:58:22.790Z,18.10
2022-11-29T10:00:54.127Z,16.10
2022-11-29T10:03:29.475Z,17.95
2022-11-29T10:06:03.494Z,17.95
2022-11-29T10:08:36.696Z,13.82
2022-11-29T10:11:17.541Z,20.30
2022-11-29T10:13:51.530Z,16.85
2022-11-29T10:16:26.861Z,19.80
2022-11-29T10:18:59.899Z,25.80
2022-11-29T10:21:35.553Z,19.80
2022-11-29T10:24:11.344Z,17.05
2022-11-29T10:26:41.147Z,16.85
2022-11-29T10:29:14.003Z,18.55
2022-11-29T10:31:46.943Z,17.13
2022-11-29T10:34:16.838Z,19.15
2022-11-29T10:36:47.958Z,21.42
2022-11-29T10:39:22.980Z,18.45
2022-11-29T10:41:56.748Z,15.05
2022-11-29T10:44:25.714Z,16.27
2022-11-29T10:46:54.454Z,14.80
2022-11-29T10:49:28.293Z,16.15
2022-11-29T10:51:56.252Z,18.97
2022-11-29T10:54:34.564Z,20.85
2022-11-29T10:57:15.031Z,22.17
2022-11-29T10:59:58.700Z,23.98
2022-11-29T11:02:27.629Z,30.77
2022-11-29T11:04:55.689Z,34.83
2022-11-29T11:07:26.630Z,26.77
2022-11-29T11:09:57.162Z,31.73
2022-11-29T11:12:30.025Z,35.28
2022-11-29T11:15:17.506Z,36.72
2022-11-29T11:17:58.342Z,23.95
2022-11-29T11:20:31.398Z,52.75
2022-11-29T11:23:04.779Z,39.92
2022-11-29T11:25:35.151Z,36.47
2022-11-29T11:28:18.116Z,25.50
2022-11-29T11:30:52.328Z,24.98
2022-11-29T11:33:22.750Z,25.67
2022-11-29T11:36:07.499Z,25.85
2022-11-29T11:38:39.037Z,23.42
2022-11-29T11:41:18.052Z,20.48
2022-11-29T11:43:53.955Z,17.73
2022-11-29T11:46:22.431Z,16.95
2022-11-29T11:48:52.504Z,18.90
2022-11-29T11:51:25.587Z,15.32
2022-11-29T11:53:57.092Z,16.40
2022-11-29T11:56:34.445Z,15.45
2022-11-29T11:59:03.951Z,13.05
2022-11-29T12:01:38.140Z,14.68
2022-11-29T12:04:10.170Z,13.65
2022-11-29T12:06:50.010Z,16.90
2022-11-29T12:09:33.884Z,16.02
2022-11-29T12:12:12.250Z,13.53
2022-11-29T12:14:51.415Z,12.98
2022-11-29T12:17:28.843Z,13.57
2022-11-29T12:20:11.032Z,11.60
2022-11-29T12:22:48.253Z,11.70
2022-11-29T12:25:22.618Z,11.27
2022-11-29T12:27:51.180Z,14.60
2022-11-29T12:30:22.347Z,16.20
2022-11-29T12:33:04.149Z,16.30
2022-11-29T12:35:46.404Z,15.52
2022-11-29T12:38:40.688Z,15.27
2022-11-29T12:41:22.631Z,18.27
2022-11-29T12:44:05.062Z,20.20
2022-11-29T12:46:35.664Z,21.08
2022-11-29T12:49:13.964Z,18.15
2022-11-29T12:51:51.650Z,17.20
2022-11-29T12:54:33.679Z,19.27
2022-11-29T12:57:08.965Z,18.60
2022-11-29T13:00:02.674Z,26.10
2022-11-29T13:02:48.481Z,22.40
2022-11-29T13:05:29.843Z,20.88
2022-11-29T13:08:24.565Z,17.27
2022-11-29T13:11:03.808Z,21.30
2022-11-29T13:13:40.780Z,16.92
2022-11-29T13:16:26.290Z,18.02
2022-11-29T13:19:06.004Z,15.27
2022-11-29T13:21:41.000Z,15.10
2022-11-29T13:24:15.623Z,16.30
2022-11-29T13:26:45.392Z,13.45
2022-11-29T13:29:16.603Z,17.40
2022-11-29T13:31:46.644Z,13.60
2022-11-29T13:34:20.974Z,15.50
2022-11-29T13:37:05.870Z,18.83
2022-11-29T13:39:49.485Z,19.17
2022-11-29T13:42:23.526Z,21.95
2022-11-29T13:44:59.967Z,19.80
2022-11-29T13:47:28.448Z,18.35
2022-11-29T13:50:02.436Z,33.08
2022-11-29T13:52:42.951Z,26.58
2022-11-29T13:55:28.660Z,27.10
2022-11-29T13:58:18.815Z,23.77
2022-11-29T14:00:52.039Z,23.83
2022-11-29T14:03:32.932Z,23.67
2022-11-29T14:06:18.694Z,21.02
2022-11-29T14:09:31.326Z,19.33
2022-11-29T14:12:06.753Z,14.18
2022-11-29T14:14:43.136Z,12.55
2022-11-29T14:17:34.371Z,14.20
2022-11-29T14:20:36.099Z,12.25
2022-11-29T14:23:31.872Z,13.82
2022-11-29T14:26:29.556Z,11.35
2022-11-29T14:29:00.747Z,10.38
2022-11-29T14:31:57.890Z,13.00
2022-11-29T14:34:44.295Z,9.27
2022-11-29T14:37:28.171Z,10.73
2022-11-29T14:40:01.933Z,10.63
2022-11-29T14:42:32.749Z,15.90
2022-11-29T14:45:04.864Z,13.63
2022-11-29T14:47:37.111Z,13.77
2022-11-29T14:50:09.888Z,11.32
2022-11-29T14:52:40.817Z,11.95
2022-11-29T14:55:31.632Z,15.63
2022-11-29T14:58:22.965Z,15.02
2022-11-29T15:01:10.096Z,14.02
2022-11-29T15:03:46.397Z,11.70
2022-11-29T15:06:19.161Z,12.82
2022-11-29T15:08:56.797Z,17.27
2022-11-29T15:11:38.148Z,12.90
2022-11-29T15:14:08.716Z,25.90
2022-11-29T15:16:57.847Z,18.77
2022-11-29T15:20:08.327Z,15.23
2022-11-29T15:22:47.926Z,17.35
2022-11-29T15:25:21.197Z,18.92
2022-11-29T15:27:56.129Z,14.32
2022-11-29T15:30:33.293Z,11.57
2022-11-29T15:33:03.759Z,10.20
2022-11-29T15:35:34.033Z,13.95
2022-11-29T15:38:02.641Z,20.83
2022-11-29T15:40:35.501Z,11.95
2022-11-29T15:43:16.920Z,13.07
2022-11-29T15:45:49.120Z,15.90
2022-11-29T15:48:22.398Z,13.57
2022-11-29T15:50:56.019Z,18.58
2022-11-29T15:53:28.838Z,19.75
2022-11-29T15:55:59.197Z,18.67
2022-11-29T15:58:32.139Z,19.08
2022-11-29T16:01:02.460Z,19.33
2022-11-29T16:03:33.987Z,19.00
2022-11-29T16:06:07.151Z,19.73
2022-11-29T16:08:41.100Z,23.20
2022-11-29T16:11:16.423Z,22.80
2022-11-29T16:14:02.488Z,28.75
2022-11-29T16:16:32.793Z,39.78
2022-11-29T16:19:10.317Z,35.30
2022-11-29T16:21:38.764Z,29.08
2022-11-29T16:24:14.593Z,28.98
2022-11-29T16:26:46.499Z,24.50
2022-11-29T16:29:24.696Z,29.38
2022-11-29T16:31:53.521Z,30.77
2022-11-29T16:34:27.596Z,32.75
2022-11-29T16:37:07.495Z,35.33
2022-11-29T16:39:38.436Z,40.97
2022-11-29T16:42:19.415Z,32.00
2022-11-29T16:47:28.703Z,32.15
2022-11-29T16:50:16.914Z,35.25
2022-11-29T16:52:45.664Z,40.47
2022-11-29T16:55:13.843Z,35.25
2022-11-29T16:57:42.532Z,37.42
2022-11-29T17:00:22.686Z,36.65
2022-11-29T17:02:50.788Z,37.65
2022-11-29T17:05:18.795Z,39.55
2022-11-29T17:07:47.399Z,41.80
2022-11-29T17:10:19.106Z,42.63
2022-11-29T17:12:48.605Z,41.72
2022-11-29T17:15:18.618Z,45.40
2022-11-29T17:17:46.649Z,44.95
2022-11-29T17:20:15.474Z,46.03
2022-11-29T17:22:43.528Z,47.40
2022-11-29T17:25:12.078Z,48.47
2022-11-29T17:27:40.145Z,50.83
2022-11-29T17:30:11.251Z,50.85
2022-11-29T17:32:40.896Z,53.08
2022-11-29T17:35:09.428Z,52.28
2022-11-29T17:37:37.380Z,51.58
2022-11-29T17:40:06.157Z,52.10
2022-11-29T17:42:34.219Z,49.63
2022-11-29T17:45:02.309Z,50.60
2022-11-29T17:47:30.339Z,49.60
2022-11-29T17:50:00.180Z,50.50
2022-11-29T17:52:28.232Z,44.72
2022-11-29T17:54:56.236Z,51.97
2022-11-29T17:57:24.944Z,48.47
2022-11-29T17:59:52.943Z,47.28
2022-11-29T18:02:21.235Z,80.97
2022-11-29T18:04:49.327Z,51.83
2022-11-29T18:07:18.828Z,52.10
2022-11-29T18:09:48.432Z,51.00
2022-11-29T18:12:16.645Z,49.95
2022-11-29T18:14:44.662Z,47.33
2022-11-29T18:17:12.835Z,49.10
2022-11-29T18:19:41.085Z,48.95
2022-11-29T18:22:09.245Z,52.08
2022-11-29T18:24:41.268Z,47.42
2022-11-29T18:27:09.327Z,48.58
2022-11-29T18:29:39.258Z,45.63
2022-11-29T18:32:07.486Z,49.67
2022-11-29T18:34:35.512Z,48.20
2022-11-29T18:37:03.521Z,42.47
2022-11-29T18:39:31.516Z,48.15
2022-11-29T18:42:00.920Z,46.10
2022-11-29T18:44:30.234Z,45.10
2022-11-29T18:46:58.628Z,45.25
2022-11-29T18:49:27.536Z,51.97
2022-11-29T18:51:55.535Z,48.60
2022-11-29T18:54:23.533Z,52.10
2022-11-29T18:56:52.288Z,54.13
2022-11-29T18:59:22.986Z,58.38
2022-11-29T19:01:52.606Z,55.00
2022-11-29T19:04:22.368Z,56.58
2022-11-29T19:06:51.072Z,51.00
2022-11-29T19:09:21.952Z,55.38
2022-11-29T19:11:51.283Z,51.40
2022-11-29T19:14:21.161Z,51.70
2022-11-29T19:16:50.236Z,51.05
2022-11-29T19:19:19.644Z,52.83
2022-11-29T19:21:48.036Z,64.93
2022-11-29T19:24:18.125Z,69.18
2022-11-29T19:26:50.087Z,54.72
2022-11-29T19:29:18.595Z,61.78
2022-11-29T19:31:48.178Z,68.03
2022-11-29T19:34:16.232Z,58.25
2022-11-29T19:36:45.141Z,62.92
2022-11-29T19:39:15.685Z,65.50
2022-11-29T19:41:44.970Z,70.07
2022-11-29T19:44:13.769Z,72.53
2022-11-29T19:46:43.648Z,65.22
2022-11-29T19:49:13.329Z,68.78
2022-11-29T19:51:41.821Z,64.63
2022-11-29T19:54:11.816Z,67.15
2022-11-29T19:56:40.708Z,64.13
2022-11-29T19:59:09.067Z,63.22
2022-11-29T20:01:42.788Z,60.15
2022-11-29T20:04:14.162Z,71.13
2022-11-29T20:06:42.787Z,63.92
2022-11-29T20:09:11.284Z,61.88
2022-11-29T20:11:39.372Z,61.35
2022-11-29T20:14:08.190Z,64.65
2022-11-29T20:16:38.935Z,61.40
2022-11-29T20:19:10.755Z,68.90
2022-11-29T20:21:44.922Z,62.88
2022-11-29T20:24:14.515Z,70.10
2022-11-29T20:26:45.459Z,67.85
2022-11-29T20:29:14.558Z,75.57
2022-11-29T20:31:49.549Z,71.03
2022-11-29T20:34:20.288Z,71.60
2022-11-29T20:37:13.163Z,74.88
2022-11-29T20:39:47.465Z,81.75
2022-11-29T20:42:39.376Z,89.13
2022-11-29T20:45:09.625Z,78.90
2022-11-29T20:47:46.164Z,74.32
2022-11-29T20:50:21.757Z,80.32
2022-11-29T20:53:00.537Z,84.03
2022-11-29T20:55:28.641Z,89.80
2022-11-29T20:57:56.720Z,82.10
2022-11-29T21:00:24.898Z,90.80
2022-11-29T21:02:53.071Z,87.90
2022-11-29T21:05:22.260Z,85.95
2022-11-29T21:07:50.398Z,89.75
2022-11-29T21:10:20.144Z,87.13
2022-11-29T21:12:48.943Z,85.55
2022-11-29T21:15:17.891Z,90.60
2022-11-29T21:17:46.614Z,85.13
2022-11-29T21:20:21.869Z,93.18
2022-11-29T21:22:57.181Z,96.25
2022-11-29T21:25:39.189Z,88.82
2022-11-29T21:28:13.413Z,82.65
2022-11-29T21:30:42.495Z,90.55
2022-11-29T21:33:11.324Z,90.78
2022-11-29T21:35:40.939Z,86.47
2022-11-29T21:38:14.342Z,79.13
2022-11-29T21:40:43.795Z,87.78
2022-11-29T21:43:12.168Z,84.38
2022-11-29T21:45:40.249Z,87.28
2022-11-29T21:48:28.610Z,86.18
2022-11-29T21:50:57.727Z,90.53
2022-11-29T21:53:27.963Z,92.40
2022-11-29T21:56:02.715Z,92.03
2022-11-29T21:58:32.658Z,92.32
2022-11-29T22:01:07.320Z,91.10
2022-11-29T22:06:04.859Z,83.20
2022-11-29T22:08:35.524Z,83.88
2022-11-29T22:11:07.197Z,81.32
2022-11-29T22:13:35.793Z,77.85
2022-11-29T22:16:09.007Z,79.35
2022-11-29T22:18:37.688Z,82.47
2022-11-29T22:21:08.319Z,75.05
2022-11-29T22:23:36.380Z,73.43
2022-11-29T22:26:07.828Z,80.22
2022-11-29T22:28:36.908Z,77.15
2022-11-29T22:31:06.642Z,85.72
2022-11-29T22:33:35.801Z,82.18
2022-11-29T22:36:06.002Z,81.78
2022-11-29T22:38:34.517Z,82.22
2022-11-29T22:41:03.383Z,83.75
2022-11-29T22:43:33.643Z,84.50
2022-11-29T22:46:05.888Z,81.93
2022-11-29T22:48:38.385Z,83.00
2022-11-29T22:51:09.541Z,76.47
2022-11-29T22:53:38.876Z,80.25
2022-11-29T22:56:09.990Z,82.88
2022-11-29T22:58:39.857Z,78.15
2022-11-29T23:01:10.979Z,86.90
2022-11-29T23:03:41.146Z,80.57
2022-11-29T23:06:11.049Z,81.90
2022-11-29T23:08:39.755Z,82.63
2022-11-29T23:11:09.363Z,86.55
2022-11-29T23:13:40.838Z,92.55
2022-11-29T23:16:13.017Z,91.68
2022-11-29T23:18:42.338Z,90.63
2022-11-29T23:21:12.535Z,99.63
2022-11-29T23:23:40.624Z,95.10
2022-11-29T23:26:10.056Z,107.85
2022-11-29T23:28:38.159Z,105.13
2022-11-29T23:31:07.611Z,99.10
2022-11-29T23:33:35.767Z,102.70
2022-11-29T23:36:05.950Z,107.47
2022-11-29T23:38:34.163Z,111.95
2022-11-29T23:41:02.462Z,109.25
2022-11-29T23:43:31.435Z,106.85
2022-11-29T23:45:59.875Z,116.60
2022-11-29T23:48:29.379Z,115.10
2022-11-29T23:50:57.403Z,119.70
2022-11-29T23:53:25.456Z,112.22
2022-11-29T23:55:57.540Z,108.45
2022-11-29T23:58:25.571Z,117.45
